This is the latest recevied weather packets stored in our database for station/object OK1VCF-5. If no packets are shown the sender has not sent any weather packets the latest 1 day(s).
| Time | Temp. | Humidity | Pressure | Rain* | Wind** | Luminosity | Snow |
|---|---|---|---|---|---|---|---|
| 1777973383 | 25° C | 44% | 1011.2 hPa | - | 0 m/s | - | - |
| 1777972482 | 24.44° C | 48% | 1011.4 hPa | - | 0 m/s | - | - |
| 1777972482 | 24.44° C | - | 1011.4 hPa | - | 0 m/s | - | - |
| 1777971580 | 24.44° C | 52% | 1011.6 hPa | - | 0 m/s | - | - |
| 1777970681 | 23.33° C | 55% | 1011.8 hPa | - | 0 m/s | - | - |
| 1777970680 | - | - | - | - | 0 m/s | - | - |
| 1777969780 | 23.33° C | 53% | 1012 hPa | - | 0 m/s | - | - |
| 1777968878 | 22.22° C | 56% | 1012 hPa | - | 0 m/s | - | - |
| 1777967978 | 22.22° C | 56% | 1011.9 hPa | - | 0 m/s | - | - |
| 1777966177 | 21.11° C | 66% | 1012.2 hPa | - | 0 m/s | - | - |
| 1777964375 | 20° C | 70% | 1012.2 hPa | - | 0 m/s | - | - |
| 1777962574 | 18.33° C | 74% | 1012.8 hPa | - | 0 m/s | - | - |
| 1777960772 | 16.67° C | 82% | 1012.9 hPa | - | 0 m/s | - | - |
| 1777958969 | 15° C | 86% | 1013.2 hPa | - | 0 m/s | - | - |
| 1777957169 | 14.44° C | 88% | 1013.2 hPa | - | 0 m/s | - | - |
| 1777956269 | 13.33° C | 90% | 1013.3 hPa | - | 0 m/s | - | - |
| 1777956268 | 13.33° C | 90% | 1013.3 hPa | - | 0 m/s | - | - |
| 1777955368 | 12.22° C | 92% | 1013.3 hPa | - | 0 m/s | - | - |
| 1777954467 | 12.22° C | 93% | 1013.4 hPa | - | 0 m/s | - | - |
| 1777953570 | 11.67° C | - | - | - | 0 m/s | - | - |
| 1777953566 | 11.67° C | 94% | 1013.4 hPa | - | 0 m/s | - | - |
| 1777953565 | 11.67° C | 94% | 1013.4 hPa | - | 0 m/s | - | - |
| 1777952665 | 11.11° C | 94% | 1013.6 hPa | - | 0 m/s | - | - |
| 1777951764 | 11.11° C | 94% | 1013.7 hPa | - | 0 m/s | - | - |
| 1777950885 | 11.11° C | 94% | 1013.6 hPa | - | 0 m/s | - | - |
* Rain since midnight (hover to see other rain measurements)
** Current wind speed in m/s (hover to see current wind gust speed)